Time,TemperatureF,DewpointF,PressureIn,WindDirection,WindDirectionDegrees,WindSpeedMPH,WindSpeedGustMPH,Humidity,HourlyPrecipIn,Conditions,Clouds,dailyrainin,SolarRadiationWatts/m^2,SoftwareType,DateUTC
2013-12-31 00:04:00,45.2,43.3,29.99,South,182,8.0,8.0,93,0.00,,,0.03,0,Wunderground v.1.15,2013-12-30 23:04:00,
2013-12-31 00:09:00,45.1,43.2,29.99,SSW,200,8.0,10.0,93,0.00,,,0.03,0,Wunderground v.1.15,2013-12-30 23:09:00,
2013-12-31 00:19:00,45.0,43.1,29.99,SW,223,6.0,12.0,93,0.00,,,0.03,0,Wunderground v.1.15,2013-12-30 23:19:00,
2013-12-31 00:24:00,44.9,43.0,29.99,SW,223,8.0,8.0,93,0.00,,,0.03,0,Wunderground v.1.15,2013-12-30 23:24:00,
2013-12-31 00:39:00,44.6,42.7,29.99,SSW,196,6.0,8.0,93,0.00,,,0.03,0,Wunderground v.1.15,2013-12-30 23:39:00,
2013-12-31 00:49:00,44.5,42.6,29.99,SSW,193,6.0,9.0,93,0.00,,,0.03,0,Wunderground v.1.15,2013-12-30 23:49:00,
2013-12-31 00:59:00,44.6,42.7,29.99,SW,221,8.0,12.0,93,0.00,,,0.03,0,Wunderground v.1.15,2013-12-30 23:59:00,
2013-12-31 01:09:00,44.6,43.0,29.99,South,173,8.0,8.0,94,0.00,,,0.00,0,Wunderground v.1.15,2013-12-31 00:09:00,
2013-12-31 01:19:00,44.7,43.1,29.99,SSE,165,7.0,10.0,94,0.00,,,0.00,0,Wunderground v.1.15,2013-12-31 00:19:00,
2013-12-31 01:29:00,44.8,43.2,29.99,South,175,6.0,7.0,94,0.00,,,0.00,0,Wunderground v.1.15,2013-12-31 00:29:00,
2013-12-31 01:34:00,44.9,43.3,29.98,South,186,7.0,7.0,94,0.00,,,0.00,0,Wunderground v.1.15,2013-12-31 00:34:00,
2013-12-31 01:39:00,45.0,43.4,29.98,SSW,202,8.0,12.0,94,0.00,,,0.00,0,Wunderground v.1.15,2013-12-31 00:39:00,
2013-12-31 01:49:00,45.1,43.2,29.99,South,171,8.0,8.0,93,0.00,,,0.00,0,Wunderground v.1.15,2013-12-31 00:49:00,
2013-12-31 01:59:00,45.1,43.2,29.99,South,186,8.0,16.0,93,0.00,,,0.00,0,Wunderground v.1.15,2013-12-31 00:59:00,
2013-12-31 02:09:00,45.1,43.2,29.98,SSW,196,8.0,9.0,93,0.00,,,0.00,0,Wunderground v.1.15,2013-12-31 01:09:00,
2013-12-31 02:19:00,45.1,43.2,29.98,SSE,163,7.0,8.0,93,0.00,,,0.00,0,Wunderground v.1.15,2013-12-31 01:19:00,
2013-12-31 02:24:00,45.0,43.1,29.99,South,171,6.0,6.0,93,0.00,,,0.00,0,Wunderground v.1.15,2013-12-31 01:24:00,
2013-12-31 02:34:00,44.9,43.0,29.98,SSE,161,5.0,11.0,93,0.00,,,0.00,0,Wunderground v.1.15,2013-12-31 01:34:00,
2013-12-31 02:39:00,44.8,42.9,29.98,SSE,161,6.0,11.0,93,0.00,,,0.00,0,Wunderground v.1.15,2013-12-31 01:39:00,
2013-12-31 02:49:00,44.7,43.1,29.98,SSW,203,7.0,12.0,94,0.00,,,0.00,0,Wunderground v.1.15,2013-12-31 01:49:00,
2013-12-31 02:54:00,44.7,43.1,29.98,SSE,166,6.0,6.0,94,0.00,,,0.00,0,Wunderground v.1.15,2013-12-31 01:54:00,
2013-12-31 03:04:00,44.7,43.1,29.98,SSW,192,6.0,6.0,94,0.00,,,0.00,0,Wunderground v.1.15,2013-12-31 02:04:00,
2013-12-31 03:09:00,44.7,43.1,29.98,SSW,210,7.0,7.0,94,0.00,,,0.00,0,Wunderground v.1.15,2013-12-31 02:09:00,
2013-12-31 03:19:00,44.7,43.1,29.98,South,182,6.0,9.0,94,0.00,,,0.00,0,Wunderground v.1.15,2013-12-31 02:19:00,
2013-12-31 03:24:00,44.7,43.1,29.98,South,180,6.0,6.0,94,0.00,,,0.00,0,Wunderground v.1.15,2013-12-31 02:24:00,
2013-12-31 03:34:00,44.7,43.1,29.98,South,190,7.0,10.0,94,0.00,,,0.00,0,Wunderground v.1.15,2013-12-31 02:34:00,
2013-12-31 03:44:00,44.7,43.1,29.98,South,191,6.0,11.0,94,0.00,,,0.00,0,Wunderground v.1.15,2013-12-31 02:44:00,
2013-12-31 03:54:00,44.8,43.2,29.97,SSW,213,7.0,7.0,94,0.00,,,0.00,0,Wunderground v.1.15,2013-12-31 02:54:00,
2013-12-31 03:59:00,44.8,43.2,29.97,SSW,207,7.0,8.0,94,0.00,,,0.00,0,Wunderground v.1.15,2013-12-31 02:59:00,
2013-12-31 04:09:00,44.9,43.0,29.97,South,180,7.0,10.0,93,0.00,,,0.00,0,Wunderground v.1.15,2013-12-31 03:09:00,
2013-12-31 04:19:00,44.9,43.0,29.97,SSE,160,5.0,11.0,93,0.00,,,0.00,0,Wunderground v.1.15,2013-12-31 03:19:00,
2013-12-31 04:24:00,45.0,43.1,29.96,SSE,156,6.0,6.0,93,0.00,,,0.00,0,Wunderground v.1.15,2013-12-31 03:24:00,
2013-12-31 04:34:00,45.0,43.1,29.95,SSW,194,7.0,8.0,93,0.00,,,0.00,0,Wunderground v.1.15,2013-12-31 03:34:00,
2013-12-31 04:39:00,45.1,43.2,29.95,SSE,155,7.0,10.0,93,0.00,,,0.00,0,Wunderground v.1.15,2013-12-31 03:39:00,
2013-12-31 04:49:00,45.1,43.2,29.94,SSW,192,7.0,10.0,93,0.00,,,0.00,0,Wunderground v.1.15,2013-12-31 03:49:00,
2013-12-31 04:54:00,45.2,43.3,29.94,South,176,7.0,7.0,93,0.00,,,0.00,0,Wunderground v.1.15,2013-12-31 03:54:00,
2013-12-31 05:04:00,45.3,43.1,29.94,South,169,7.0,7.0,92,0.00,,,0.00,0,Wunderground v.1.15,2013-12-31 04:04:00,
2013-12-31 05:14:00,45.2,43.0,29.94,South,184,7.0,10.0,92,0.00,,,0.00,0,Wunderground v.1.15,2013-12-31 04:14:00,
2013-12-31 05:24:00,45.1,42.9,29.94,South,183,8.0,8.0,92,0.00,,,0.00,0,Wunderground v.1.15,2013-12-31 04:24:00,
2013-12-31 05:29:00,45.1,42.9,29.94,SSW,198,8.0,11.0,92,0.00,,,0.00,0,Wunderground v.1.15,2013-12-31 04:29:00,
2013-12-31 05:39:00,45.1,42.9,29.94,SW,225,7.0,18.0,92,0.00,,,0.00,0,Wunderground v.1.15,2013-12-31 04:39:00,
2013-12-31 05:44:00,45.0,42.8,29.93,South,178,8.0,8.0,92,0.00,,,0.00,0,Wunderground v.1.15,2013-12-31 04:44:00,
2013-12-31 05:54:00,45.0,42.8,29.93,SE,136,8.0,8.0,92,0.00,,,0.00,0,Wunderground v.1.15,2013-12-31 04:54:00,
2013-12-31 06:04:00,44.9,42.7,29.93,SSE,163,7.0,10.0,92,0.00,,,0.00,0,Wunderground v.1.15,2013-12-31 05:04:00,
2013-12-31 06:09:00,44.9,42.7,29.92,South,178,7.0,12.0,92,0.00,,,0.00,0,Wunderground v.1.15,2013-12-31 05:09:00,
2013-12-31 06:14:00,44.9,42.7,29.92,South,175,7.0,17.0,92,0.00,,,0.00,0,Wunderground v.1.15,2013-12-31 05:14:00,
2013-12-31 06:19:00,44.9,42.7,29.92,SSE,159,8.0,17.0,92,0.00,,,0.00,0,Wunderground v.1.15,2013-12-31 05:19:00,
2013-12-31 06:29:00,44.9,42.7,29.92,SSE,164,8.0,10.0,92,0.00,,,0.00,0,Wunderground v.1.15,2013-12-31 05:29:00,
2013-12-31 06:34:00,44.9,42.7,29.92,SE,142,8.0,8.0,92,0.00,,,0.00,0,Wunderground v.1.15,2013-12-31 05:34:00,
2013-12-31 06:44:00,44.9,42.7,29.91,South,178,7.0,11.0,92,0.00,,,0.00,0,Wunderground v.1.15,2013-12-31 05:44:00,
2013-12-31 06:49:00,44.8,42.6,29.91,South,187,8.0,13.0,92,0.00,,,0.00,0,Wunderground v.1.15,2013-12-31 05:49:00,
2013-12-31 06:59:00,44.8,42.6,29.91,SSE,161,6.0,8.0,92,0.00,,,0.00,0,Wunderground v.1.15,2013-12-31 05:59:00,
2013-12-31 07:04:00,44.8,42.6,29.91,SSE,150,6.0,6.0,92,0.00,,,0.00,0,Wunderground v.1.15,2013-12-31 06:04:00,
2013-12-31 07:09:00,44.8,42.6,29.91,SSE,165,7.0,12.0,92,0.00,,,0.00,0,Wunderground v.1.15,2013-12-31 06:09:00,
2013-12-31 07:19:00,44.8,42.6,29.89,SSE,161,9.0,15.0,92,0.00,,,0.00,0,Wunderground v.1.15,2013-12-31 06:19:00,
2013-12-31 07:24:00,44.7,42.5,29.90,SE,139,8.0,10.0,92,0.00,,,0.00,0,Wunderground v.1.15,2013-12-31 06:24:00,
2013-12-31 07:29:00,44.6,42.1,29.90,SSW,196,8.0,10.0,91,0.00,,,0.00,0,Wunderground v.1.15,2013-12-31 06:29:00,
2013-12-31 07:39:00,44.4,41.9,29.90,SSE,161,8.0,13.0,91,0.00,,,0.00,0,Wunderground v.1.15,2013-12-31 06:39:00,
2013-12-31 07:49:00,44.4,41.9,29.89,SE,146,8.0,14.0,91,0.00,,,0.00,0,Wunderground v.1.15,2013-12-31 06:49:00,
2013-12-31 07:54:00,44.4,41.9,29.89,SSE,161,8.0,8.0,91,0.00,,,0.00,0,Wunderground v.1.15,2013-12-31 06:54:00,
2013-12-31 08:04:00,44.3,41.8,29.88,South,173,8.0,12.0,91,0.00,,,0.00,0,Wunderground v.1.15,2013-12-31 07:04:00,
2013-12-31 08:09:00,44.3,41.8,29.88,SSE,163,8.0,12.0,91,0.00,,,0.00,0,Wunderground v.1.15,2013-12-31 07:09:00,
2013-12-31 08:19:00,44.2,41.7,29.88,South,182,8.0,13.0,91,0.00,,,0.00,0,Wunderground v.1.15,2013-12-31 07:19:00,
2013-12-31 08:24:00,44.1,41.6,29.88,SSE,150,8.0,8.0,91,0.00,,,0.00,0,Wunderground v.1.15,2013-12-31 07:24:00,
2013-12-31 08:34:00,44.0,41.5,29.88,South,178,8.0,13.0,91,0.00,,,0.00,0,Wunderground v.1.15,2013-12-31 07:34:00,
2013-12-31 08:44:00,44.0,41.5,29.88,SSE,148,9.0,9.0,91,0.00,,,0.00,0,Wunderground v.1.15,2013-12-31 07:44:00,
2013-12-31 08:49:00,43.9,41.4,29.88,SW,224,9.0,10.0,91,0.00,,,0.00,0,Wunderground v.1.15,2013-12-31 07:49:00,
2013-12-31 08:59:00,44.0,41.5,29.87,SE,140,8.0,9.0,91,0.00,,,0.00,7,Wunderground v.1.15,2013-12-31 07:59:00,
2013-12-31 09:04:00,44.0,41.5,29.87,SSE,164,9.0,10.0,91,0.00,,,0.00,11,Wunderground v.1.15,2013-12-31 08:04:00,
2013-12-31 09:14:00,44.3,41.8,29.86,SSE,161,10.0,10.0,91,0.00,,,0.00,16,Wunderground v.1.15,2013-12-31 08:14:00,
2013-12-31 09:19:00,44.4,41.9,29.86,South,175,10.0,14.0,91,0.00,,,0.00,14,Wunderground v.1.15,2013-12-31 08:19:00,
2013-12-31 09:29:00,44.7,41.9,29.87,South,182,10.0,14.0,90,0.00,,,0.00,16,Wunderground v.1.15,2013-12-31 08:29:00,
2013-12-31 09:39:00,45.0,42.2,29.87,SSE,153,11.0,17.0,90,0.00,,,0.00,28,Wunderground v.1.15,2013-12-31 08:39:00,
2013-12-31 09:49:00,45.1,42.3,29.86,South,180,9.0,15.0,90,0.00,,,0.00,30,Wunderground v.1.15,2013-12-31 08:49:00,
2013-12-31 09:54:00,45.1,42.3,29.86,SSW,192,9.0,15.0,90,0.00,,,0.00,37,Wunderground v.1.15,2013-12-31 08:54:00,
2013-12-31 10:04:00,45.3,42.2,29.86,SE,137,10.0,13.0,89,0.00,,,0.00,72,Wunderground v.1.15,2013-12-31 09:04:00,
2013-12-31 10:09:00,45.4,42.3,29.85,South,175,10.0,14.0,89,0.00,,,0.00,76,Wunderground v.1.15,2013-12-31 09:09:00,
2013-12-31 10:19:00,45.6,42.5,29.85,SSE,150,11.0,15.0,89,0.00,,,0.00,79,Wunderground v.1.15,2013-12-31 09:19:00,
2013-12-31 10:24:00,45.7,42.6,29.85,SSE,167,10.0,22.0,89,0.00,,,0.00,76,Wunderground v.1.15,2013-12-31 09:24:00,
2013-12-31 10:34:00,46.0,42.6,29.85,SSE,153,12.0,12.0,88,0.00,,,0.00,77,Wunderground v.1.15,2013-12-31 09:34:00,
2013-12-31 10:39:00,46.1,42.7,29.86,South,188,11.0,16.0,88,0.00,,,0.00,74,Wunderground v.1.15,2013-12-31 09:39:00,
2013-12-31 10:49:00,46.3,42.9,29.85,SSE,161,9.0,18.0,88,0.00,,,0.00,81,Wunderground v.1.15,2013-12-31 09:49:00,
2013-12-31 10:59:00,46.5,42.8,29.85,South,183,11.0,11.0,87,0.00,,,0.00,53,Wunderground v.1.15,2013-12-31 09:59:00,
2013-12-31 11:09:00,46.7,43.0,29.85,SSW,196,10.0,16.0,87,0.00,,,0.00,65,Wunderground v.1.15,2013-12-31 10:09:00,
2013-12-31 11:19:00,47.0,43.0,29.85,South,176,10.0,18.0,86,0.00,,,0.00,132,Wunderground v.1.15,2013-12-31 10:19:00,
2013-12-31 11:29:00,47.4,43.4,29.85,South,188,11.0,13.0,86,0.00,,,0.00,202,Wunderground v.1.15,2013-12-31 10:29:00,
2013-12-31 11:39:00,47.8,43.5,29.84,SSW,206,9.0,13.0,85,0.00,,,0.00,229,Wunderground v.1.15,2013-12-31 10:39:00,
2013-12-31 11:49:00,48.0,43.4,29.83,SSE,164,10.0,19.0,84,0.00,,,0.00,213,Wunderground v.1.15,2013-12-31 10:49:00,
2013-12-31 11:54:00,48.0,43.1,29.83,South,179,11.0,19.0,83,0.00,,,0.00,169,Wunderground v.1.15,2013-12-31 10:54:00,
2013-12-31 12:04:00,48.0,43.1,29.82,SE,144,11.0,17.0,83,0.00,,,0.00,153,Wunderground v.1.15,2013-12-31 11:04:00,
2013-12-31 12:09:00,48.1,43.2,29.82,SE,128,11.0,17.0,83,0.00,,,0.00,185,Wunderground v.1.15,2013-12-31 11:09:00,
2013-12-31 12:19:00,48.1,42.9,29.81,SSE,159,12.0,24.0,82,0.00,,,0.00,146,Wunderground v.1.15,2013-12-31 11:19:00,
2013-12-31 12:24:00,48.1,42.9,29.81,SSE,155,12.0,16.0,82,0.00,,,0.00,144,Wunderground v.1.15,2013-12-31 11:24:00,
2013-12-31 12:29:00,48.1,42.9,29.80,South,175,11.0,20.0,82,0.00,,,0.00,116,Wunderground v.1.15,2013-12-31 11:29:00,
2013-12-31 12:39:00,48.1,42.9,29.80,SSE,165,11.0,12.0,82,0.00,,,0.00,118,Wunderground v.1.15,2013-12-31 11:39:00,
2013-12-31 12:49:00,48.2,43.0,29.80,South,175,10.0,15.0,82,0.00,,,0.00,141,Wunderground v.1.15,2013-12-31 11:49:00,
2013-12-31 12:59:00,48.5,42.9,29.80,South,171,9.0,9.0,81,0.00,,,0.00,160,Wunderground v.1.15,2013-12-31 11:59:00,
2013-12-31 13:04:00,48.6,43.0,29.79,South,178,10.0,14.0,81,0.00,,,0.00,118,Wunderground v.1.15,2013-12-31 12:04:00,
2013-12-31 13:14:00,48.6,43.0,29.78,South,172,10.0,10.0,81,0.00,,,0.00,100,Wunderground v.1.15,2013-12-31 12:14:00,
2013-12-31 13:19:00,48.6,43.0,29.78,South,186,9.0,17.0,81,0.00,,,0.00,113,Wunderground v.1.15,2013-12-31 12:19:00,
2013-12-31 13:29:00,48.6,42.7,29.78,SE,141,9.0,16.0,80,0.00,,,0.00,139,Wunderground v.1.15,2013-12-31 12:29:00,
2013-12-31 13:39:00,48.8,42.6,29.78,South,169,10.0,13.0,79,0.00,,,0.00,100,Wunderground v.1.15,2013-12-31 12:39:00,
2013-12-31 13:44:00,48.8,42.2,29.77,ESE,123,10.0,18.0,78,0.00,,,0.00,100,Wunderground v.1.15,2013-12-31 12:44:00,
2013-12-31 13:54:00,49.0,42.4,29.77,South,179,8.0,8.0,78,0.00,,,0.00,90,Wunderground v.1.15,2013-12-31 12:54:00,
2013-12-31 14:04:00,49.1,42.2,29.77,SSE,161,7.0,13.0,77,0.00,,,0.00,79,Wunderground v.1.15,2013-12-31 13:04:00,
2013-12-31 14:09:00,49.2,42.0,29.77,South,169,8.0,13.0,76,0.00,,,0.00,69,Wunderground v.1.15,2013-12-31 13:09:00,
2013-12-31 14:14:00,49.2,41.6,29.77,SSE,154,9.0,16.0,75,0.00,,,0.00,54,Wunderground v.1.15,2013-12-31 13:14:00,
2013-12-31 14:24:00,49.2,42.3,29.77,South,175,8.0,11.0,77,0.00,,,0.00,42,Wunderground v.1.15,2013-12-31 13:24:00,
2013-12-31 14:29:00,48.9,42.3,29.77,SE,130,8.0,17.0,78,0.00,,,0.01,49,Wunderground v.1.15,2013-12-31 13:29:00,
2013-12-31 14:39:00,48.4,42.5,29.76,SSE,150,8.0,10.0,80,0.00,,,0.01,54,Wunderground v.1.15,2013-12-31 13:39:00,
2013-12-31 14:44:00,48.3,42.4,29.76,SSE,164,8.0,11.0,80,0.00,,,0.01,63,Wunderground v.1.15,2013-12-31 13:44:00,
2013-12-31 14:54:00,48.3,42.4,29.75,South,180,9.0,9.0,80,0.00,,,0.01,67,Wunderground v.1.15,2013-12-31 13:54:00,
2013-12-31 14:59:00,48.3,42.4,29.76,South,190,9.0,16.0,80,0.00,,,0.01,39,Wunderground v.1.15,2013-12-31 13:59:00,
2013-12-31 15:09:00,48.4,42.2,29.75,SE,141,8.0,15.0,79,0.00,,,0.01,44,Wunderground v.1.15,2013-12-31 14:09:00,
2013-12-31 15:14:00,48.5,42.3,29.75,SSW,194,8.0,8.0,79,0.00,,,0.01,35,Wunderground v.1.15,2013-12-31 14:14:00,
2013-12-31 15:24:00,48.4,42.5,29.75,SSE,148,8.0,13.0,80,0.00,,,0.01,25,Wunderground v.1.15,2013-12-31 14:24:00,
2013-12-31 15:34:00,48.2,43.0,29.75,South,178,8.0,8.0,82,0.00,,,0.02,25,Wunderground v.1.15,2013-12-31 14:34:00,
2013-12-31 15:39:00,48.0,42.8,29.74,SE,136,8.0,11.0,82,0.00,,,0.02,25,Wunderground v.1.15,2013-12-31 14:39:00,
2013-12-31 15:44:00,47.9,42.7,29.74,SSE,166,8.0,8.0,82,0.00,,,0.02,25,Wunderground v.1.15,2013-12-31 14:44:00,
2013-12-31 15:54:00,47.9,42.7,29.74,SSE,150,9.0,9.0,82,0.00,,,0.02,25,Wunderground v.1.15,2013-12-31 14:54:00,
2013-12-31 16:04:00,47.9,43.0,29.73,SSE,159,8.0,8.0,83,0.00,,,0.02,16,Wunderground v.1.15,2013-12-31 15:04:00,
2013-12-31 16:09:00,47.9,43.0,29.73,SSE,164,8.0,9.0,83,0.00,,,0.02,23,Wunderground v.1.15,2013-12-31 15:09:00,
2013-12-31 16:19:00,47.8,42.6,29.73,SSE,155,9.0,13.0,82,0.00,,,0.02,14,Wunderground v.1.15,2013-12-31 15:19:00,
2013-12-31 16:24:00,47.8,42.6,29.72,SSE,167,8.0,8.0,82,0.00,,,0.02,11,Wunderground v.1.15,2013-12-31 15:24:00,
2013-12-31 16:34:00,47.8,42.6,29.72,SSE,165,7.0,12.0,82,0.00,,,0.02,5,Wunderground v.1.15,2013-12-31 15:34:00,
2013-12-31 16:39:00,47.8,42.3,29.72,SE,135,7.0,12.0,81,0.00,,,0.02,0,Wunderground v.1.15,2013-12-31 15:39:00,
2013-12-31 16:49:00,47.7,41.8,29.72,South,182,7.0,14.0,80,0.00,,,0.02,0,Wunderground v.1.15,2013-12-31 15:49:00,
2013-12-31 16:54:00,47.8,41.9,29.72,SSE,167,8.0,14.0,80,0.00,,,0.02,0,Wunderground v.1.15,2013-12-31 15:54:00,
2013-12-31 17:04:00,47.9,41.4,29.72,SE,128,8.0,11.0,78,0.00,,,0.02,0,Wunderground v.1.15,2013-12-31 16:04:00,
2013-12-31 17:09:00,48.0,41.1,29.71,South,184,8.0,11.0,77,0.00,,,0.02,0,Wunderground v.1.15,2013-12-31 16:09:00,
2013-12-31 17:19:00,48.0,40.8,29.71,SE,143,7.0,12.0,76,0.00,,,0.02,0,Wunderground v.1.15,2013-12-31 16:19:00,
2013-12-31 17:29:00,48.0,40.5,29.71,South,177,7.0,12.0,75,0.00,,,0.02,0,Wunderground v.1.15,2013-12-31 16:29:00,
2013-12-31 17:39:00,48.1,40.2,29.70,South,186,9.0,9.0,74,0.00,,,0.02,0,Wunderground v.1.15,2013-12-31 16:39:00,
2013-12-31 17:49:00,48.1,39.9,29.70,ESE,110,9.0,12.0,73,0.00,,,0.02,0,Wunderground v.1.15,2013-12-31 16:49:00,
2013-12-31 17:54:00,48.2,39.9,29.70,South,169,9.0,16.0,73,0.00,,,0.02,0,Wunderground v.1.15,2013-12-31 16:54:00,
2013-12-31 18:04:00,48.4,39.8,29.69,SSE,153,8.0,16.0,72,0.00,,,0.02,0,Wunderground v.1.15,2013-12-31 17:04:00,
2013-12-31 18:14:00,48.6,40.0,29.69,SE,142,10.0,10.0,72,0.00,,,0.02,0,Wunderground v.1.15,2013-12-31 17:14:00,
2013-12-31 18:24:00,48.7,40.1,29.69,South,173,8.0,8.0,72,0.00,,,0.02,0,Wunderground v.1.15,2013-12-31 17:24:00,
2013-12-31 18:34:00,48.8,40.2,29.69,SE,140,8.0,13.0,72,0.00,,,0.02,0,Wunderground v.1.15,2013-12-31 17:34:00,
2013-12-31 18:39:00,48.8,40.2,29.69,South,186,8.0,14.0,72,0.00,,,0.02,0,Wunderground v.1.15,2013-12-31 17:39:00,
2013-12-31 18:44:00,48.8,40.2,29.68,SSE,147,8.0,15.0,72,0.00,,,0.02,0,Wunderground v.1.15,2013-12-31 17:44:00,
2013-12-31 18:49:00,48.8,39.8,29.68,South,181,8.0,16.0,71,0.00,,,0.02,0,Wunderground v.1.15,2013-12-31 17:49:00,
2013-12-31 18:59:00,48.9,39.5,29.68,South,169,10.0,14.0,70,0.00,,,0.02,0,Wunderground v.1.15,2013-12-31 17:59:00,
2013-12-31 19:04:00,48.9,39.5,29.69,SSE,163,10.0,18.0,70,0.00,,,0.02,0,Wunderground v.1.15,2013-12-31 18:04:00,
2013-12-31 19:14:00,48.8,40.5,29.69,SSE,164,8.0,8.0,73,0.00,,,0.02,0,Wunderground v.1.15,2013-12-31 18:14:00,
2013-12-31 19:19:00,48.5,40.9,29.69,SSE,161,8.0,18.0,75,0.00,,,0.02,0,Wunderground v.1.15,2013-12-31 18:19:00,
2013-12-31 19:29:00,47.7,41.2,29.69,SW,224,6.0,10.0,78,0.00,,,0.02,0,Wunderground v.1.15,2013-12-31 18:29:00,
2013-12-31 19:34:00,47.4,40.9,29.70,South,169,6.0,10.0,78,0.00,,,0.02,0,Wunderground v.1.15,2013-12-31 18:34:00,
2013-12-31 19:44:00,47.4,40.9,29.69,SW,236,7.0,7.0,78,0.00,,,0.02,0,Wunderground v.1.15,2013-12-31 18:44:00,
2013-12-31 19:49:00,47.4,40.6,29.69,South,175,7.0,14.0,77,0.00,,,0.02,0,Wunderground v.1.15,2013-12-31 18:49:00,
2013-12-31 19:59:00,47.5,41.0,29.70,South,175,8.0,15.0,78,0.00,,,0.02,0,Wunderground v.1.15,2013-12-31 18:59:00,
2013-12-31 20:09:00,47.3,41.1,29.70,South,188,7.0,11.0,79,0.00,,,0.02,0,Wunderground v.1.15,2013-12-31 19:09:00,
2013-12-31 20:14:00,47.2,41.3,29.70,SSW,205,9.0,21.0,80,0.00,,,0.02,0,Wunderground v.1.15,2013-12-31 19:14:00,
2013-12-31 20:24:00,46.7,41.8,29.70,SSW,201,7.0,7.0,83,0.07,,,0.03,0,Wunderground v.1.15,2013-12-31 19:24:00,
2013-12-31 20:34:00,46.2,41.6,29.70,SSW,199,5.0,10.0,84,0.00,,,0.03,0,Wunderground v.1.15,2013-12-31 19:34:00,
2013-12-31 20:44:00,45.9,41.6,29.70,South,178,5.0,5.0,85,0.00,,,0.04,0,Wunderground v.1.15,2013-12-31 19:44:00,
2013-12-31 20:54:00,45.7,41.8,29.70,South,176,8.0,11.0,86,0.00,,,0.04,0,Wunderground v.1.15,2013-12-31 19:54:00,
2013-12-31 21:04:00,45.6,42.0,29.70,SSW,203,8.0,17.0,87,0.00,,,0.05,0,Wunderground v.1.15,2013-12-31 20:04:00,
2013-12-31 21:09:00,45.6,42.0,29.70,South,181,9.0,17.0,87,0.00,,,0.05,0,Wunderground v.1.15,2013-12-31 20:09:00,
2013-12-31 21:19:00,45.3,42.0,29.69,SSE,168,7.0,18.0,88,0.05,,,0.06,0,Wunderground v.1.15,2013-12-31 20:19:00,
2013-12-31 21:24:00,45.2,42.2,29.69,SSE,153,6.0,11.0,89,0.05,,,0.06,0,Wunderground v.1.15,2013-12-31 20:24:00,
2013-12-31 21:34:00,45.0,42.2,29.69,South,178,7.0,7.0,90,0.05,,,0.06,0,Wunderground v.1.15,2013-12-31 20:34:00,
2013-12-31 21:39:00,44.9,42.1,29.69,SE,141,6.0,9.0,90,0.04,,,0.07,0,Wunderground v.1.15,2013-12-31 20:39:00,
2013-12-31 21:49:00,44.7,41.9,29.69,SW,229,8.0,13.0,90,0.04,,,0.07,0,Wunderground v.1.15,2013-12-31 20:49:00,
2013-12-31 21:54:00,44.7,41.9,29.69,SSE,156,7.0,11.0,90,0.05,,,0.08,0,Wunderground v.1.15,2013-12-31 20:54:00,
2013-12-31 22:04:00,44.7,42.2,29.69,SE,145,7.0,7.0,91,0.04,,,0.08,0,Wunderground v.1.15,2013-12-31 21:04:00,
2013-12-31 22:09:00,44.6,42.1,29.69,SSE,161,6.0,12.0,91,0.04,,,0.09,0,Wunderground v.1.15,2013-12-31 21:09:00,
2013-12-31 22:19:00,44.6,42.1,29.69,South,190,7.0,12.0,91,0.07,,,0.09,0,Wunderground v.1.15,2013-12-31 21:19:00,
2013-12-31 22:24:00,44.6,42.4,29.69,SSW,206,7.0,14.0,92,0.04,,,0.09,0,Wunderground v.1.15,2013-12-31 21:24:00,
2013-12-31 22:34:00,44.6,42.4,29.69,SSW,195,7.0,14.0,92,0.00,,,0.10,0,Wunderground v.1.15,2013-12-31 21:34:00,
2013-12-31 22:39:00,44.6,42.4,29.69,SSE,167,7.0,16.0,92,0.10,,,0.11,0,Wunderground v.1.15,2013-12-31 21:39:00,
2013-12-31 22:49:00,44.6,42.4,29.68,SW,236,7.0,18.0,92,0.05,,,0.11,0,Wunderground v.1.15,2013-12-31 21:49:00,
2013-12-31 22:59:00,44.5,42.6,29.69,South,188,8.0,14.0,93,0.05,,,0.12,0,Wunderground v.1.15,2013-12-31 21:59:00,
2013-12-31 23:09:00,44.4,42.5,29.69,SSW,210,7.0,9.0,93,0.06,,,0.13,0,Wunderground v.1.15,2013-12-31 22:09:00,
2013-12-31 23:19:00,44.4,42.5,29.69,SSW,210,6.0,10.0,93,0.04,,,0.13,0,Wunderground v.1.15,2013-12-31 22:19:00,
2013-12-31 23:24:00,44.4,42.8,29.69,South,188,7.0,7.0,94,0.10,,,0.14,0,Wunderground v.1.15,2013-12-31 22:24:00,
2013-12-31 23:34:00,44.3,42.7,29.69,South,184,6.0,12.0,94,0.05,,,0.15,0,Wunderground v.1.15,2013-12-31 22:34:00,
2013-12-31 23:44:00,44.4,43.1,29.68,SW,218,8.0,8.0,95,0.09,,,0.16,0,Wunderground v.1.15,2013-12-31 22:44:00,
2013-12-31 23:49:00,44.4,43.1,29.69,South,191,7.0,12.0,95,0.07,,,0.16,0,Wunderground v.1.15,2013-12-31 22:49:00,
2013-12-31 23:59:00,44.4,43.1,29.69,South,186,5.0,16.0,95,0.00,,,0.16,0,Wunderground v.1.15,2013-12-31 22:59:00,